createdAt,value
2018-07-16T00:00:15.829Z,57.80
2018-07-16T00:01:19.538Z,58.00
2018-07-16T00:01:51.282Z,58.00
2018-07-16T00:02:23.034Z,58.00
2018-07-16T00:02:54.757Z,57.90
2018-07-16T00:03:26.493Z,57.90
2018-07-16T00:03:58.234Z,58.00
2018-07-16T00:04:29.957Z,58.10
2018-07-16T00:05:01.674Z,58.10
2018-07-16T00:05:33.399Z,58.00
2018-07-16T00:06:05.142Z,58.00
2018-07-16T00:06:36.854Z,58.00
2018-07-16T00:07:08.609Z,58.10
2018-07-16T00:07:40.333Z,58.10
2018-07-16T00:08:12.040Z,58.10
2018-07-16T00:08:43.780Z,58.00
2018-07-16T00:09:15.506Z,58.10
2018-07-16T00:09:47.228Z,58.10
2018-07-16T00:10:18.966Z,58.10
2018-07-16T00:11:22.918Z,58.10
2018-07-16T00:11:54.637Z,58.00
2018-07-16T00:12:26.368Z,58.00
2018-07-16T00:12:58.295Z,58.00
2018-07-16T00:13:30.004Z,58.00
2018-07-16T00:14:01.723Z,58.00
2018-07-16T00:15:11.681Z,58.00
2018-07-16T00:15:43.426Z,57.90
2018-07-16T00:16:15.167Z,57.90
2018-07-16T00:16:46.900Z,57.90
2018-07-16T00:17:18.632Z,57.90
2018-07-16T00:17:50.361Z,57.90
2018-07-16T00:18:22.079Z,57.90
2018-07-16T00:18:53.863Z,57.90
2018-07-16T00:19:25.597Z,58.00
2018-07-16T00:19:57.314Z,58.00
2018-07-16T00:20:29.041Z,57.90
2018-07-16T00:21:00.751Z,57.90
2018-07-16T00:21:32.492Z,57.90
2018-07-16T00:22:04.209Z,58.00
2018-07-16T00:22:35.937Z,57.90
2018-07-16T00:23:07.649Z,58.00
2018-07-16T00:23:39.381Z,58.00
2018-07-16T00:24:11.374Z,57.90
2018-07-16T00:24:43.098Z,58.00
2018-07-16T00:25:14.837Z,58.00
2018-07-16T00:25:46.578Z,58.10
2018-07-16T00:26:18.309Z,58.00
2018-07-16T00:26:50.036Z,58.10
2018-07-16T00:27:21.776Z,58.10
2018-07-16T00:27:53.496Z,58.20
2018-07-16T00:28:25.237Z,58.20
2018-07-16T00:28:56.966Z,58.20
2018-07-16T00:29:28.725Z,58.20
2018-07-16T00:30:00.466Z,58.30
2018-07-16T00:30:32.197Z,58.40
2018-07-16T00:31:03.911Z,58.30
2018-07-16T00:31:35.633Z,58.40
2018-07-16T00:32:07.437Z,58.40
2018-07-16T00:32:39.191Z,58.40
2018-07-16T00:33:10.918Z,58.40
2018-07-16T00:33:42.661Z,58.50
2018-07-16T00:34:14.398Z,58.50
2018-07-16T00:34:46.120Z,58.40
2018-07-16T00:35:17.845Z,58.50
2018-07-16T00:35:49.562Z,58.50
2018-07-16T00:36:21.313Z,58.50
2018-07-16T00:36:53.034Z,58.40
2018-07-16T00:37:24.754Z,58.50
2018-07-16T00:37:56.483Z,58.50
2018-07-16T00:38:28.211Z,58.50
2018-07-16T00:38:59.956Z,58.40
2018-07-16T00:39:31.701Z,58.50
2018-07-16T00:40:03.443Z,58.50
2018-07-16T00:40:35.177Z,58.60
2018-07-16T00:41:06.897Z,58.50
2018-07-16T00:41:38.624Z,58.60
2018-07-16T00:42:10.369Z,58.60
2018-07-16T00:42:42.082Z,58.70
2018-07-16T00:43:13.812Z,58.30
2018-07-16T00:43:45.533Z,58.70
2018-07-16T00:44:17.339Z,58.60
2018-07-16T00:44:49.176Z,58.50
2018-07-16T00:45:20.901Z,58.60
2018-07-16T00:45:52.632Z,58.60
2018-07-16T00:46:24.345Z,58.60
2018-07-16T00:46:56.070Z,58.60
2018-07-16T00:47:27.781Z,58.50
2018-07-16T00:47:59.508Z,58.60
2018-07-16T00:48:31.242Z,58.60
2018-07-16T00:49:02.947Z,58.70
2018-07-16T00:49:34.673Z,58.70
2018-07-16T00:50:06.402Z,58.50
2018-07-16T00:50:38.129Z,58.70
2018-07-16T00:51:09.848Z,58.60
2018-07-16T00:51:41.571Z,58.60
2018-07-16T00:52:13.291Z,58.60
2018-07-16T00:52:45.020Z,58.50
2018-07-16T00:53:16.759Z,58.50
2018-07-16T00:53:48.486Z,58.50
2018-07-16T00:54:20.217Z,58.50
2018-07-16T00:54:51.981Z,58.50
2018-07-16T00:55:23.712Z,58.50
2018-07-16T00:55:55.431Z,58.50
2018-07-16T00:56:27.159Z,58.50
2018-07-16T00:56:59.082Z,58.50
2018-07-16T00:57:30.829Z,58.40
2018-07-16T00:58:02.729Z,58.30
2018-07-16T00:58:34.462Z,58.30
2018-07-16T00:59:38.182Z,58.30
2018-07-16T01:00:09.904Z,58.30
2018-07-16T01:00:41.631Z,58.30
2018-07-16T01:01:13.354Z,58.40
2018-07-16T01:01:45.079Z,58.30
2018-07-16T01:02:16.813Z,58.40
2018-07-16T01:02:48.544Z,58.40
2018-07-16T01:03:20.265Z,58.40
2018-07-16T01:03:51.992Z,58.40
2018-07-16T01:04:23.701Z,58.40
2018-07-16T01:04:55.461Z,58.50
2018-07-16T01:05:27.174Z,58.50
2018-07-16T01:05:58.901Z,58.50
2018-07-16T01:06:30.625Z,58.50
2018-07-16T01:07:02.346Z,58.50
2018-07-16T01:07:34.069Z,58.50
2018-07-16T01:08:05.792Z,58.50
2018-07-16T01:08:37.516Z,58.50
2018-07-16T01:09:09.247Z,58.60
2018-07-16T01:09:40.985Z,58.50
2018-07-16T01:10:12.729Z,58.60
2018-07-16T01:10:44.449Z,58.60
2018-07-16T01:11:16.174Z,58.50
2018-07-16T01:11:47.899Z,58.50
2018-07-16T01:12:19.615Z,58.50
2018-07-16T01:12:51.351Z,58.50
2018-07-16T01:13:23.081Z,58.50
2018-07-16T01:13:55.086Z,58.30
2018-07-16T01:14:26.814Z,58.30
2018-07-16T01:14:58.539Z,58.40
2018-07-16T01:15:30.282Z,58.40
2018-07-16T01:16:01.999Z,58.40
2018-07-16T01:16:33.735Z,58.40
2018-07-16T01:17:05.466Z,58.40
2018-07-16T01:17:37.193Z,58.40
2018-07-16T01:18:08.933Z,58.50
2018-07-16T01:18:40.668Z,58.40
2018-07-16T01:19:12.397Z,58.40
2018-07-16T01:19:44.146Z,58.40
2018-07-16T01:20:47.876Z,58.40
2018-07-16T01:21:19.594Z,58.40
2018-07-16T01:21:51.330Z,58.40
2018-07-16T01:22:23.066Z,58.50
2018-07-16T01:22:54.798Z,58.40
2018-07-16T01:23:26.532Z,58.40
2018-07-16T01:23:58.260Z,58.40
2018-07-16T01:24:29.986Z,58.40
2018-07-16T01:25:01.701Z,58.30
2018-07-16T01:25:33.460Z,58.20
2018-07-16T01:26:05.179Z,58.30
2018-07-16T01:26:36.901Z,58.30
2018-07-16T01:27:08.640Z,58.20
2018-07-16T01:27:40.360Z,58.20
2018-07-16T01:28:12.086Z,58.20
2018-07-16T01:28:43.834Z,58.10
2018-07-16T01:29:15.557Z,58.10
2018-07-16T01:30:19.290Z,58.10
2018-07-16T01:30:51.061Z,58.00
2018-07-16T01:31:22.782Z,58.10
2018-07-16T01:31:54.516Z,58.10
2018-07-16T01:32:26.302Z,58.00
2018-07-16T01:32:58.015Z,58.00
2018-07-16T01:33:29.745Z,58.00
2018-07-16T01:34:01.470Z,58.00
2018-07-16T01:34:33.202Z,57.90
2018-07-16T01:35:04.951Z,57.90
2018-07-16T01:35:36.707Z,57.90
2018-07-16T01:36:08.429Z,57.90
2018-07-16T01:36:40.177Z,57.90
2018-07-16T01:37:11.902Z,57.90
2018-07-16T01:37:43.638Z,58.00
2018-07-16T01:38:15.386Z,58.00
2018-07-16T01:38:47.111Z,58.20
2018-07-16T01:39:18.837Z,58.30
2018-07-16T01:39:50.584Z,58.10
2018-07-16T01:40:22.304Z,58.00
2018-07-16T01:40:54.121Z,58.00
2018-07-16T01:41:25.854Z,58.00
2018-07-16T01:41:57.582Z,58.10
2018-07-16T01:42:29.304Z,58.10
2018-07-16T01:43:01.023Z,58.10
2018-07-16T01:43:32.754Z,58.10
2018-07-16T01:44:04.474Z,58.20
2018-07-16T01:44:36.210Z,58.20
2018-07-16T01:45:07.945Z,58.20
2018-07-16T01:45:39.715Z,57.90
2018-07-16T01:46:11.439Z,58.30
2018-07-16T01:46:43.174Z,58.30
2018-07-16T01:47:14.915Z,58.10
2018-07-16T01:47:46.649Z,58.30
2018-07-16T01:48:18.363Z,58.30
2018-07-16T01:48:50.085Z,58.30
2018-07-16T01:49:21.829Z,58.30
2018-07-16T01:49:53.559Z,58.40
2018-07-16T01:50:25.544Z,58.40
2018-07-16T01:50:57.262Z,58.40
2018-07-16T01:51:28.986Z,58.30
2018-07-16T01:52:32.749Z,58.50
2018-07-16T01:53:04.472Z,58.40
2018-07-16T01:53:36.193Z,58.40
2018-07-16T01:54:39.939Z,58.40
2018-07-16T01:55:11.658Z,58.40
2018-07-16T01:55:43.380Z,58.40
2018-07-16T01:56:15.124Z,58.40
2018-07-16T01:56:46.846Z,58.30
2018-07-16T01:57:18.572Z,58.30
2018-07-16T01:57:50.297Z,58.30
2018-07-16T01:58:22.028Z,58.30
2018-07-16T01:58:53.763Z,58.30
2018-07-16T01:59:25.485Z,58.20
2018-07-16T01:59:57.198Z,58.20
2018-07-16T02:00:28.961Z,58.20
2018-07-16T02:01:00.660Z,58.20
2018-07-16T02:01:32.381Z,58.30
2018-07-16T02:02:04.133Z,58.30
2018-07-16T02:02:35.849Z,58.30
2018-07-16T02:03:07.572Z,58.30
2018-07-16T02:03:39.357Z,58.30
2018-07-16T02:04:11.070Z,58.30
2018-07-16T02:04:42.798Z,58.30
2018-07-16T02:05:14.521Z,58.30
2018-07-16T02:05:46.241Z,58.30
2018-07-16T02:06:17.977Z,58.30
2018-07-16T02:06:49.726Z,58.30
2018-07-16T02:07:21.453Z,58.30
2018-07-16T02:07:53.169Z,58.30
2018-07-16T02:08:24.914Z,58.30
2018-07-16T02:08:56.643Z,58.80
2018-07-16T02:09:28.444Z,58.30
2018-07-16T02:10:00.142Z,58.30
2018-07-16T02:11:03.926Z,58.30
2018-07-16T02:11:35.660Z,58.40
2018-07-16T02:12:07.393Z,58.30
2018-07-16T02:12:39.121Z,58.90
2018-07-16T02:13:10.845Z,58.30
2018-07-16T02:13:42.560Z,58.30
2018-07-16T02:14:14.471Z,58.30
2018-07-16T02:14:46.205Z,58.30
2018-07-16T02:15:17.950Z,58.30
2018-07-16T02:15:49.682Z,58.30
2018-07-16T02:16:21.402Z,58.20
2018-07-16T02:16:53.174Z,58.30
2018-07-16T02:17:57.090Z,58.20
2018-07-16T02:18:28.807Z,58.10
2018-07-16T02:19:00.553Z,58.10
2018-07-16T02:19:32.282Z,58.10
2018-07-16T02:20:04.013Z,58.10
2018-07-16T02:20:35.770Z,58.20
2018-07-16T02:21:07.491Z,58.10
2018-07-16T02:21:39.459Z,58.10
2018-07-16T02:22:11.182Z,58.10
2018-07-16T02:22:42.910Z,58.10
2018-07-16T02:23:14.654Z,58.10
2018-07-16T02:23:46.406Z,58.00
2018-07-16T02:24:18.133Z,58.00
2018-07-16T02:24:49.858Z,58.00
2018-07-16T02:25:21.590Z,58.00
2018-07-16T02:25:53.305Z,58.00
2018-07-16T02:26:25.042Z,58.00
2018-07-16T02:26:56.768Z,58.00
2018-07-16T02:27:28.493Z,58.00
2018-07-16T02:28:00.340Z,57.90
2018-07-16T02:28:32.065Z,58.00
2018-07-16T02:29:03.909Z,58.00
2018-07-16T02:29:35.600Z,58.00
2018-07-16T02:30:07.348Z,57.90
2018-07-16T02:30:39.061Z,57.90
2018-07-16T02:31:10.962Z,57.80
2018-07-16T02:31:42.734Z,57.90
2018-07-16T02:32:14.445Z,57.90
2018-07-16T02:32:46.169Z,57.90
2018-07-16T02:33:17.903Z,57.90
2018-07-16T02:33:49.637Z,58.00
2018-07-16T02:34:21.362Z,58.00
2018-07-16T02:34:53.082Z,58.00
2018-07-16T02:35:24.810Z,57.90
2018-07-16T02:35:56.546Z,58.00
2018-07-16T02:36:28.264Z,58.00
2018-07-16T02:36:59.989Z,58.00
2018-07-16T02:37:31.726Z,58.00
2018-07-16T02:38:03.455Z,58.00
2018-07-16T02:38:35.291Z,58.00
2018-07-16T02:39:07.186Z,58.00
2018-07-16T02:39:38.907Z,58.10
2018-07-16T02:40:10.638Z,57.90
2018-07-16T02:40:42.356Z,57.90
2018-07-16T02:41:14.086Z,58.00
2018-07-16T02:41:46.041Z,58.00
2018-07-16T02:42:17.989Z,57.90
2018-07-16T02:42:49.818Z,58.00
2018-07-16T02:43:21.609Z,58.00
2018-07-16T02:43:53.380Z,58.00
2018-07-16T02:44:25.086Z,58.00
2018-07-16T02:44:56.811Z,58.00
2018-07-16T02:45:28.557Z,58.00
2018-07-16T02:46:00.286Z,58.00
2018-07-16T02:46:32.320Z,58.60
2018-07-16T02:47:04.344Z,58.00
2018-07-16T02:47:36.587Z,58.00
2018-07-16T02:48:40.271Z,57.90
2018-07-16T02:49:11.992Z,58.00
2018-07-16T02:49:43.734Z,58.00
2018-07-16T02:50:15.454Z,58.00
2018-07-16T02:50:47.171Z,58.50
2018-07-16T02:51:18.902Z,58.00
2018-07-16T02:51:50.663Z,58.00
2018-07-16T02:52:22.409Z,58.00
2018-07-16T02:52:54.126Z,58.60
2018-07-16T02:53:25.858Z,58.00
2018-07-16T02:53:57.584Z,58.00
2018-07-16T02:54:29.309Z,58.00
2018-07-16T02:55:01.027Z,58.50
2018-07-16T02:55:32.834Z,58.00
2018-07-16T02:56:04.557Z,58.00
2018-07-16T02:56:36.283Z,58.00
2018-07-16T02:57:08.010Z,58.00
2018-07-16T02:57:39.734Z,58.10
2018-07-16T02:58:11.455Z,58.10
2018-07-16T02:58:43.187Z,58.10
2018-07-16T02:59:14.925Z,58.10
2018-07-16T02:59:46.642Z,58.10
2018-07-16T03:00:18.362Z,58.10
2018-07-16T03:00:50.096Z,58.00
2018-07-16T03:01:21.824Z,58.00
2018-07-16T03:01:53.550Z,58.10
2018-07-16T03:02:57.263Z,58.00
2018-07-16T03:03:28.994Z,57.90
2018-07-16T03:04:00.723Z,58.00
2018-07-16T03:04:32.441Z,58.00
2018-07-16T03:05:04.165Z,58.00
2018-07-16T03:05:35.899Z,57.90
2018-07-16T03:06:07.621Z,57.90
2018-07-16T03:06:39.356Z,57.80
2018-07-16T03:07:11.270Z,57.80
2018-07-16T03:07:42.993Z,57.90
2018-07-16T03:08:14.726Z,57.90
2018-07-16T03:08:46.457Z,58.00
2018-07-16T03:09:18.183Z,58.00
2018-07-16T03:09:49.906Z,58.00
2018-07-16T03:10:21.629Z,58.00
2018-07-16T03:10:53.351Z,58.00
2018-07-16T03:11:25.112Z,58.00
2018-07-16T03:11:57.042Z,58.00
2018-07-16T03:12:28.772Z,58.00
2018-07-16T03:13:00.491Z,57.90
2018-07-16T03:13:32.210Z,58.00
2018-07-16T03:14:03.950Z,58.30
2018-07-16T03:14:35.673Z,58.00
2018-07-16T03:15:07.418Z,58.00
2018-07-16T03:15:39.125Z,58.00
2018-07-16T03:16:10.858Z,57.90
2018-07-16T03:16:42.583Z,57.80
2018-07-16T03:17:14.543Z,57.80
2018-07-16T03:17:46.262Z,57.80
2018-07-16T03:18:17.989Z,57.70
2018-07-16T03:18:50.032Z,57.70
2018-07-16T03:19:21.734Z,57.70
2018-07-16T03:19:53.523Z,57.60
2018-07-16T03:20:25.219Z,57.60
2018-07-16T03:21:28.987Z,57.90
2018-07-16T03:22:00.726Z,57.60
2018-07-16T03:22:32.486Z,57.60
2018-07-16T03:23:04.209Z,57.70
2018-07-16T03:23:35.945Z,57.70
2018-07-16T03:24:07.670Z,57.80
2018-07-16T03:24:39.396Z,57.90
2018-07-16T03:25:11.126Z,57.80
2018-07-16T03:25:42.841Z,57.80
2018-07-16T03:26:14.579Z,57.20
2018-07-16T03:26:46.312Z,57.80
2018-07-16T03:27:18.018Z,57.80
2018-07-16T03:27:49.761Z,57.80
2018-07-16T03:28:21.487Z,57.80
2018-07-16T03:28:53.213Z,57.80
2018-07-16T03:29:24.950Z,57.70
2018-07-16T03:29:56.699Z,57.90
2018-07-16T03:30:28.442Z,57.90
2018-07-16T03:31:00.164Z,57.80
2018-07-16T03:31:31.957Z,57.80
2018-07-16T03:32:03.984Z,57.80
2018-07-16T03:32:35.967Z,57.80
2018-07-16T03:33:07.687Z,57.80
2018-07-16T03:33:39.417Z,57.80
2018-07-16T03:34:11.141Z,57.80
2018-07-16T03:34:42.863Z,57.70
2018-07-16T03:35:14.585Z,57.70
2018-07-16T03:35:46.313Z,57.80
2018-07-16T03:36:18.036Z,57.80
2018-07-16T03:36:49.758Z,57.80
2018-07-16T03:37:21.488Z,57.90
2018-07-16T03:37:53.226Z,57.80
2018-07-16T03:38:24.953Z,57.80
2018-07-16T03:39:28.706Z,57.80
2018-07-16T03:40:00.617Z,57.80
2018-07-16T03:40:32.337Z,57.80
2018-07-16T03:41:04.084Z,57.80
2018-07-16T03:41:35.801Z,57.80
2018-07-16T03:42:07.532Z,57.90
2018-07-16T03:42:39.253Z,57.80
2018-07-16T03:43:10.973Z,57.90
2018-07-16T03:43:42.701Z,57.90
2018-07-16T03:44:14.428Z,57.90
2018-07-16T03:44:46.157Z,58.00
2018-07-16T03:45:17.867Z,57.70
2018-07-16T03:45:49.597Z,57.90
2018-07-16T03:46:21.338Z,57.90
2018-07-16T03:46:53.064Z,57.90
2018-07-16T03:47:24.802Z,57.90
2018-07-16T03:47:56.549Z,57.90
2018-07-16T03:48:28.473Z,57.40
2018-07-16T03:49:00.207Z,57.90
2018-07-16T03:49:31.934Z,57.80
2018-07-16T03:50:03.667Z,57.80
2018-07-16T03:50:35.387Z,57.70
2018-07-16T03:51:07.113Z,57.80
2018-07-16T03:51:38.847Z,57.80
2018-07-16T03:52:10.578Z,57.70
2018-07-16T03:52:42.304Z,57.70
2018-07-16T03:53:14.036Z,57.80
2018-07-16T03:53:45.762Z,57.70
2018-07-16T03:54:17.556Z,57.60
2018-07-16T03:54:49.422Z,57.70
2018-07-16T03:55:21.161Z,57.50
2018-07-16T03:55:52.898Z,57.60
2018-07-16T03:56:24.810Z,57.50
2018-07-16T03:56:56.561Z,57.50
2018-07-16T03:57:28.261Z,57.50
2018-07-16T03:57:59.991Z,57.50
2018-07-16T03:58:31.780Z,57.50
2018-07-16T03:59:03.474Z,57.50
2018-07-16T03:59:35.190Z,57.60
2018-07-16T04:00:06.974Z,57.50
2018-07-16T04:00:38.698Z,57.50
2018-07-16T04:01:10.423Z,58.00
2018-07-16T04:01:42.273Z,57.40
2018-07-16T04:02:14.074Z,57.40
2018-07-16T04:02:45.797Z,57.40
2018-07-16T04:03:17.532Z,57.40
2018-07-16T04:03:49.252Z,57.90
2018-07-16T04:04:20.979Z,57.30
2018-07-16T04:04:52.695Z,57.30
2018-07-16T04:05:24.428Z,57.30
2018-07-16T04:05:56.150Z,57.20
2018-07-16T04:06:27.870Z,57.10
2018-07-16T04:06:59.600Z,57.10
2018-07-16T04:07:31.320Z,57.00
2018-07-16T04:08:35.056Z,57.20
2018-07-16T04:09:06.796Z,57.10
2018-07-16T04:09:38.578Z,57.00
2018-07-16T04:10:10.517Z,56.90
2018-07-16T04:10:42.237Z,57.00
2018-07-16T04:11:13.965Z,56.90
2018-07-16T04:11:45.681Z,56.90
2018-07-16T04:12:17.424Z,57.00
2018-07-16T04:13:21.178Z,57.20
2018-07-16T04:13:52.943Z,57.50
2018-07-16T04:14:24.662Z,57.40
2018-07-16T04:14:56.383Z,57.20
2018-07-16T04:15:28.121Z,57.10
2018-07-16T04:15:59.966Z,57.10
2018-07-16T04:16:31.656Z,57.10
2018-07-16T04:17:03.406Z,57.10
2018-07-16T04:17:35.130Z,57.10
2018-07-16T04:18:06.841Z,57.00
2018-07-16T04:18:38.590Z,57.00
2018-07-16T04:19:10.392Z,58.30
2018-07-16T04:20:14.163Z,58.60
2018-07-16T04:20:45.881Z,58.30
2018-07-16T04:21:17.717Z,59.00
2018-07-16T04:21:49.430Z,58.20
2018-07-16T04:22:21.151Z,58.80
2018-07-16T04:22:52.893Z,59.40
2018-07-16T04:23:24.610Z,59.60
2018-07-16T04:23:56.369Z,58.80
2018-07-16T04:24:28.104Z,59.00
2018-07-16T04:24:59.878Z,58.90
2018-07-16T04:25:31.617Z,58.80
2018-07-16T04:26:03.358Z,59.00
2018-07-16T04:26:35.089Z,58.70
2018-07-16T04:27:06.820Z,58.50
2018-07-16T04:27:38.555Z,58.70
2018-07-16T04:28:10.285Z,58.70
2018-07-16T04:28:42.010Z,58.70
2018-07-16T04:29:13.732Z,58.90
2018-07-16T04:29:45.457Z,58.20
2018-07-16T04:30:17.174Z,58.10
2018-07-16T04:30:48.939Z,59.00
2018-07-16T04:31:20.834Z,58.30
2018-07-16T04:31:52.557Z,58.20
2018-07-16T04:32:24.293Z,58.20
2018-07-16T04:32:56.006Z,58.50
2018-07-16T04:33:27.734Z,58.40
2018-07-16T04:33:59.536Z,58.00
2018-07-16T04:34:31.270Z,58.10
2018-07-16T04:35:02.994Z,58.40
2018-07-16T04:35:34.735Z,58.40
2018-07-16T04:36:06.475Z,58.80
2018-07-16T04:36:38.199Z,58.50
2018-07-16T04:37:09.930Z,58.40
2018-07-16T04:37:41.665Z,58.10
2018-07-16T04:38:13.387Z,58.50
2018-07-16T04:38:45.106Z,58.80
2018-07-16T04:39:16.843Z,58.20
2018-07-16T04:39:48.606Z,58.20
2018-07-16T04:40:20.508Z,58.30
2018-07-16T04:40:52.240Z,58.40
2018-07-16T04:41:23.965Z,58.70
2018-07-16T04:41:55.691Z,58.40
2018-07-16T04:42:27.427Z,58.50
2018-07-16T04:42:59.169Z,58.40
2018-07-16T04:43:30.893Z,59.00
2018-07-16T04:44:02.635Z,58.70
2018-07-16T04:44:34.374Z,58.70
2018-07-16T04:45:06.107Z,58.80
2018-07-16T04:45:37.825Z,58.70
2018-07-16T04:46:09.562Z,58.70
2018-07-16T04:46:41.289Z,58.70
2018-07-16T04:47:13.009Z,58.70
2018-07-16T04:47:44.729Z,59.00
2018-07-16T04:48:16.465Z,59.00
2018-07-16T04:48:48.186Z,58.90
2018-07-16T04:49:19.904Z,58.70
2018-07-16T04:49:51.621Z,58.70
2018-07-16T04:50:23.350Z,58.90
2018-07-16T04:50:55.076Z,59.00
2018-07-16T04:51:26.801Z,59.10
2018-07-16T04:51:58.544Z,59.00
2018-07-16T04:52:30.253Z,59.10
2018-07-16T04:53:02.002Z,59.20
2018-07-16T04:53:33.714Z,59.00
2018-07-16T04:54:05.443Z,59.20
2018-07-16T04:54:37.156Z,59.20
2018-07-16T04:55:08.947Z,59.20
2018-07-16T04:55:40.650Z,59.20
2018-07-16T04:56:12.368Z,59.20
2018-07-16T04:56:44.285Z,59.20
2018-07-16T04:57:16.018Z,59.20
2018-07-16T04:57:47.738Z,59.20
2018-07-16T04:58:19.451Z,59.60
2018-07-16T04:58:51.180Z,59.40
2018-07-16T04:59:22.920Z,59.40
2018-07-16T04:59:54.649Z,59.60
2018-07-16T05:00:26.387Z,59.60
2018-07-16T05:00:58.115Z,59.80
2018-07-16T05:01:29.842Z,59.80
2018-07-16T05:02:01.566Z,59.80
2018-07-16T05:02:33.285Z,60.00
2018-07-16T05:03:05.032Z,60.20
2018-07-16T05:03:36.935Z,60.30
2018-07-16T05:04:08.661Z,60.90
2018-07-16T05:04:40.468Z,61.00
2018-07-16T05:05:12.195Z,61.40
2018-07-16T05:05:43.924Z,61.80
2018-07-16T05:06:15.673Z,62.30
2018-07-16T05:06:47.392Z,62.70
2018-07-16T05:07:19.114Z,63.00
2018-07-16T05:07:50.840Z,63.30
2018-07-16T05:08:22.675Z,63.40
2018-07-16T05:08:54.390Z,63.60
2018-07-16T05:09:26.121Z,63.70
2018-07-16T05:09:57.850Z,63.70
2018-07-16T05:10:29.575Z,63.70
2018-07-16T05:11:01.524Z,63.60
2018-07-16T05:11:33.409Z,63.50
2018-07-16T05:12:05.133Z,63.70
2018-07-16T05:12:36.863Z,64.30
2018-07-16T05:13:08.608Z,63.70
2018-07-16T05:13:40.337Z,63.60
2018-07-16T05:14:12.076Z,63.70
2018-07-16T05:14:43.786Z,63.70
2018-07-16T05:15:15.538Z,63.80
2018-07-16T05:15:47.280Z,63.70
2018-07-16T05:16:18.987Z,63.90
2018-07-16T05:16:50.711Z,63.80
2018-07-16T05:17:22.442Z,64.00
2018-07-16T05:17:54.193Z,64.00
2018-07-16T05:18:26.033Z,64.10
2018-07-16T05:19:29.873Z,64.20
2018-07-16T05:20:01.604Z,64.20
2018-07-16T05:20:33.317Z,64.30
2018-07-16T05:21:05.043Z,64.40
2018-07-16T05:21:36.782Z,64.40
2018-07-16T05:22:08.515Z,64.50
2018-07-16T05:22:40.257Z,64.40
2018-07-16T05:23:11.984Z,64.30
2018-07-16T05:23:43.711Z,64.40
2018-07-16T05:24:15.472Z,64.60
2018-07-16T05:24:47.183Z,64.10
2018-07-16T05:25:18.995Z,64.10
2018-07-16T05:25:50.723Z,64.10
2018-07-16T05:26:22.443Z,64.30
2018-07-16T05:26:54.169Z,64.20
2018-07-16T05:27:25.892Z,64.40
2018-07-16T05:27:57.625Z,64.40
2018-07-16T05:28:29.359Z,64.20
2018-07-16T05:29:01.153Z,64.20
2018-07-16T05:30:05.011Z,64.20
2018-07-16T05:30:36.781Z,64.00
2018-07-16T05:31:08.480Z,64.00
2018-07-16T05:31:40.235Z,64.00
2018-07-16T05:32:12.215Z,63.90
2018-07-16T05:32:44.278Z,64.00
2018-07-16T05:33:16.011Z,64.00
2018-07-16T05:33:47.760Z,64.00
2018-07-16T05:34:19.486Z,63.90
2018-07-16T05:34:51.213Z,64.00
2018-07-16T05:35:22.980Z,64.00
2018-07-16T05:35:54.705Z,64.00
2018-07-16T05:36:58.454Z,63.80
2018-07-16T05:37:30.187Z,63.90
2018-07-16T05:38:01.961Z,63.80
2018-07-16T05:38:33.839Z,63.80
2018-07-16T05:39:05.577Z,63.80
2018-07-16T05:39:37.298Z,64.00
2018-07-16T05:40:09.024Z,64.00
2018-07-16T05:40:40.770Z,63.90
2018-07-16T05:41:12.496Z,63.90
2018-07-16T05:41:44.221Z,63.80
2018-07-16T05:42:15.954Z,63.70
2018-07-16T05:42:47.785Z,63.90
2018-07-16T05:43:19.509Z,63.80
2018-07-16T05:43:51.234Z,64.10
2018-07-16T05:44:22.965Z,63.90
2018-07-16T05:44:54.693Z,63.70
2018-07-16T05:45:26.412Z,63.80
2018-07-16T05:45:58.137Z,63.70
2018-07-16T05:46:29.849Z,63.70
2018-07-16T05:47:01.585Z,63.80
2018-07-16T05:47:33.315Z,63.70
2018-07-16T05:48:05.041Z,63.80
2018-07-16T05:48:36.765Z,63.80
2018-07-16T05:49:08.505Z,63.90
2018-07-16T05:49:40.222Z,63.80
2018-07-16T05:50:11.950Z,63.90
2018-07-16T05:50:43.701Z,64.00
2018-07-16T05:51:15.430Z,63.90
2018-07-16T05:51:47.169Z,63.90
2018-07-16T05:52:18.890Z,63.90
2018-07-16T05:52:50.625Z,64.00
2018-07-16T05:53:22.353Z,64.30
2018-07-16T05:53:54.074Z,64.20
2018-07-16T05:54:25.796Z,64.20
2018-07-16T05:54:57.524Z,64.30
2018-07-16T05:55:29.246Z,64.20
2018-07-16T05:56:33.050Z,64.30
2018-07-16T05:57:04.786Z,64.30
2018-07-16T05:57:36.519Z,64.40
2018-07-16T05:58:08.256Z,64.70
2018-07-16T05:58:40.175Z,64.30
2018-07-16T05:59:11.911Z,64.20
2018-07-16T05:59:43.712Z,64.40
2018-07-16T06:00:15.442Z,64.00
2018-07-16T06:00:47.156Z,64.10
2018-07-16T06:01:18.885Z,64.40
2018-07-16T06:01:50.620Z,64.00
2018-07-16T06:02:22.338Z,64.10
2018-07-16T06:02:54.087Z,63.90
2018-07-16T06:03:25.812Z,63.80
2018-07-16T06:03:57.534Z,64.20
2018-07-16T06:04:29.256Z,64.00
2018-07-16T06:05:00.976Z,64.10
2018-07-16T06:05:32.702Z,63.80
2018-07-16T06:06:04.415Z,63.90
2018-07-16T06:06:36.142Z,64.20
2018-07-16T06:07:07.863Z,64.00
2018-07-16T06:07:39.594Z,64.00
2018-07-16T06:08:11.316Z,64.10
2018-07-16T06:08:43.061Z,63.90
2018-07-16T06:09:14.978Z,64.00
2018-07-16T06:09:46.705Z,64.10
2018-07-16T06:10:18.467Z,63.90
2018-07-16T06:10:50.166Z,64.10
2018-07-16T06:11:21.884Z,64.00
2018-07-16T06:11:53.656Z,63.80
2018-07-16T06:12:25.367Z,63.40
2018-07-16T06:12:57.293Z,64.00
2018-07-16T06:13:29.051Z,63.80
2018-07-16T06:14:00.780Z,63.70
2018-07-16T06:14:32.572Z,63.70
2018-07-16T06:15:04.442Z,63.60
2018-07-16T06:15:36.156Z,63.60
2018-07-16T06:16:07.905Z,63.60
2018-07-16T06:16:39.654Z,63.60
2018-07-16T06:17:43.631Z,63.50
2018-07-16T06:18:15.531Z,63.60
2018-07-16T06:18:47.264Z,63.60
2018-07-16T06:19:18.987Z,63.50
2018-07-16T06:19:50.710Z,63.50
2018-07-16T06:20:22.442Z,63.60
2018-07-16T06:20:54.177Z,63.70
2018-07-16T06:21:25.925Z,63.70
2018-07-16T06:21:57.677Z,63.90
2018-07-16T06:22:29.405Z,63.80
2018-07-16T06:23:01.140Z,63.70
2018-07-16T06:23:32.865Z,63.90
2018-07-16T06:24:04.678Z,63.80
2018-07-16T06:24:36.513Z,63.80
2018-07-16T06:25:08.248Z,63.80
2018-07-16T06:25:39.966Z,63.80
2018-07-16T06:26:11.691Z,63.90
2018-07-16T06:26:43.450Z,63.80
2018-07-16T06:27:15.186Z,64.00
2018-07-16T06:27:46.896Z,64.10
2018-07-16T06:28:18.617Z,64.60
2018-07-16T06:28:50.350Z,64.00
2018-07-16T06:29:22.070Z,63.90
2018-07-16T06:29:53.805Z,63.90
2018-07-16T06:30:25.547Z,63.90
2018-07-16T06:30:57.275Z,64.30
2018-07-16T06:31:29.013Z,64.00
2018-07-16T06:32:00.796Z,63.90
2018-07-16T06:32:32.592Z,63.80
2018-07-16T06:33:04.458Z,63.80
2018-07-16T06:33:36.186Z,63.90
2018-07-16T06:34:07.914Z,64.00
2018-07-16T06:34:39.634Z,64.00
2018-07-16T06:35:11.361Z,63.40
2018-07-16T06:35:43.088Z,64.30
2018-07-16T06:36:14.798Z,64.00
2018-07-16T06:36:46.526Z,64.10
2018-07-16T06:37:18.275Z,64.20
2018-07-16T06:37:49.993Z,64.00
2018-07-16T06:38:21.722Z,64.10
2018-07-16T06:38:53.474Z,64.00
2018-07-16T06:39:25.204Z,64.20
2018-07-16T06:39:56.937Z,64.20
2018-07-16T06:40:29.050Z,64.30
2018-07-16T06:41:00.970Z,64.40
2018-07-16T06:41:33.192Z,64.50
2018-07-16T06:42:04.799Z,64.50
2018-07-16T06:43:08.758Z,64.50
2018-07-16T06:43:40.479Z,64.50
2018-07-16T06:44:12.210Z,64.60
2018-07-16T06:44:43.947Z,64.60
2018-07-16T06:45:15.721Z,64.40
2018-07-16T06:45:47.450Z,64.40
2018-07-16T06:46:19.177Z,64.50
2018-07-16T06:46:50.909Z,64.50
2018-07-16T06:47:22.636Z,64.60
2018-07-16T06:47:54.495Z,64.60
2018-07-16T06:48:26.302Z,64.80
2018-07-16T06:48:58.089Z,64.60
2018-07-16T06:49:29.813Z,64.60
2018-07-16T06:50:01.655Z,64.80
2018-07-16T06:50:33.417Z,64.70
2018-07-16T06:51:05.149Z,64.90
2018-07-16T06:51:36.889Z,64.80
2018-07-16T06:52:08.628Z,64.80
2018-07-16T06:52:40.352Z,64.80
2018-07-16T06:53:12.273Z,64.70
2018-07-16T06:53:43.989Z,64.60
2018-07-16T06:54:47.710Z,64.60
2018-07-16T06:55:19.722Z,64.50
2018-07-16T06:55:51.469Z,65.10
2018-07-16T06:56:23.201Z,64.50
2018-07-16T06:56:54.926Z,64.40
2018-07-16T06:57:26.935Z,64.50
2018-07-16T06:57:58.666Z,64.40
2018-07-16T06:58:30.398Z,64.30
2018-07-16T06:59:02.132Z,65.00
2018-07-16T06:59:33.862Z,64.60
2018-07-16T07:00:05.597Z,64.50
2018-07-16T07:00:37.334Z,64.60
2018-07-16T07:01:09.050Z,64.70
2018-07-16T07:01:40.766Z,64.60